Data for 07/25/2016

Time Sea-Level Adjusted Pressure Absolute Pressure Temperature Relative Humidity Dew Point   
(mb) (inHg) (mb) (inHg) (C) (F) (%) (C) (F)
00:05 1021 30.15 850 25.1 18.5 65.3 32 1.7 35
00:10 1021 30.15 850 25.1 18.2 64.8 36 3.2 37.7
00:15 1021 30.15 850 25.1 17.5 63.5 39 3.5 38.4
00:20 1021 30.15 850 25.1 17 62.6 43 4.4 39.9
00:25 1021 30.15 850 25.1 16.7 62.1 44 4.5 40.1
00:30 1021 30.15 850 25.1 16.6 61.9 45 4.7 40.5
00:35 1021 30.15 850 25.1 16.4 61.5 44 4.2 39.6
00:40 1021 30.15 850 25.1 16.3 61.3 44 4.2 39.6
00:45 1021 30.15 850 25.1 16.4 61.5 43 4 39.2
00:50 1021 30.15 850 25.1 16.7 62 42 3.9 39
00:55 1021 30.15 850 25.1 16.6 61.9 42 3.8 38.9
01:00 1021 30.15 850 25.1 16.5 61.7 43 4.1 39.4
01:05 1021 30.15 850 25.1 16.4 61.6 45 4.7 40.5
01:10 1021 30.15 850 25.1 16 60.9 46 4.4 40
01:15 1021 30.15 850 25.1 15.9 60.5 46 4.2 39.6
01:20 1021 30.15 850 25.1 15.9 60.5 45 4.2 39.5
01:25 1021 30.15 850 25.1 15.6 60 47 4.3 39.7
01:30 1021 30.15 850 25.1 15.3 59.5 48 4.3 39.7
01:35 1021 30.15 850 25.1 15.1 59.1 49 4.4 39.9
01:40 1021 30.15 850 25.1 15 59 47 3.9 39
01:45 1021 30.15 850 25.1 15.3 59.5 46 3.9 39
01:50 1021 30.15 850 25.1 15.3 59.6 47 4 39.2
01:55 1021 30.15 850 25.1 15.2 59.3 46 3.6 38.5
02:00 1021 30.15 850 25.1 15.5 59.9 44 3.5 38.3
02:05 1021 30.15 850 25.1 15.5 59.8 44 3.3 37.9
02:10 1021 30.15 850 25.1 15.3 59.6 44 3.3 38
02:15 1021 30.15 850 25.1 15.2 59.3 44 3 37.5
02:20 1021 30.15 850 25.1 15.1 59.2 44 3 37.5
02:25 1021 30.15 850 25.1 15.1 59.1 44 3 37.5
02:30 1021 30.15 850 25.1 14.8 58.6 45 3.2 37.8
02:35 1021 30.15 850 25.1 14.5 58.1 46 3 37.4
02:40 1021 30.15 850 25.1 14.6 58.3 46 3.2 37.7
02:45 1021 30.15 850 25.1 14.3 57.8 45 2.8 37
02:50 1021 30.15 850 25.1 14.1 57.4 45 2.6 36.6
02:55 1021 30.15 850 25.1 14.3 57.8 45 2.7 36.9
03:00 1021 30.15 850 25.1 14.4 57.9 46 2.8 37.1
03:05 1021 30.15 851 25.13 14.3 57.7 45 2.5 36.6
03:10 1021 30.15 851 25.13 14.5 58.1 43 2.2 35.9
03:15 1021 30.15 851 25.13 14.8 58.7 42 2.2 35.9
03:20 1021 30.15 851 25.13 15.2 59.3 44 2.9 37.3
03:25 1021 30.15 851 25.13 14.6 58.4 50 4.3 39.8
03:30 1021 30.15 851 25.13 14.3 57.7 49 3.7 38.7
03:35 1021 30.15 851 25.13 14.1 57.4 50 4 39.2
03:40 1022 30.18 851 25.13 13.7 56.6 51 3.9 39.1
03:45 1022 30.18 851 25.13 13.8 56.8 49 3.3 37.9
03:50 1022 30.18 851 25.13 14.3 57.7 48 3.4 38.2
03:55 1022 30.18 851 25.13 14.1 57.3 51 4.1 39.3
04:00 1022 30.18 851 25.13 13.5 56.3 51 3.7 38.7
04:05 1022 30.18 851 25.13 13.6 56.5 50 3.4 38.1
04:10 1022 30.18 851 25.13 14.5 58 42 1.9 35.3
04:15 1022 30.18 851 25.13 15.4 59.7 41 2.2 35.9
04:20 1022 30.18 851 25.13 15.3 59.5 41 2.2 36
04:25 1022 30.18 851 25.13 15.1 59.1 43 2.6 36.7
04:30 1022 30.18 851 25.13 14.7 58.4 45 2.8 37.1
04:35 1022 30.18 851 25.13 14.4 57.8 45 2.6 36.7
04:40 1022 30.18 851 25.13 14.1 57.4 46 2.8 37
04:45 1022 30.18 851 25.13 13.9 57 47 2.7 36.9
04:50 1022 30.18 851 25.13 13.9 56.9 44 2 35.6
04:55 1022 30.18 851 25.13 14.1 57.3 47 2.9 37.2
05:00 1022 30.18 851 25.13 14.2 57.5 45 2.4 36.4
05:05 1022 30.18 851 25.13 14.4 57.9 43 2 35.7
05:10 1022 30.18 851 25.13 14.4 58 44 2.3 36.1
05:15 1022 30.18 851 25.13 14.1 57.4 45 2.3 36.2
05:20 1022 30.18 851 25.13 13.9 57.1 45 2.4 36.3
05:25 1022 30.18 851 25.13 14 57.2 45 2.5 36.5
05:30 1022 30.18 851 25.13 14.1 57.4 45 2.3 36.1
05:35 1022 30.18 851 25.13 14.2 57.5 45 2.6 36.6
05:40 1022 30.18 851 25.13 14.2 57.6 44 2.3 36.1
05:45 1022 30.18 851 25.13 14.6 58.3 43 2.4 36.2
05:50 1022 30.18 851 25.13 14.7 58.5 44 2.8 37.1
05:55 1022 30.18 851 25.13 14.9 58.7 46 3.4 38
06:00 1022 30.18 851 25.13 14.9 58.9 44 2.9 37.2
06:05 1022 30.18 851 25.13 15.1 59.1 44 3.1 37.5
06:10 1022 30.18 851 25.13 15.1 59.1 44 3 37.3
06:15 1022 30.18 852 25.16 15.3 59.5 44 3 37.5
06:20 1022 30.18 852 25.16 15.4 59.8 43 3.1 37.6
06:25 1022 30.18 852 25.16 15.6 60.1 42 2.8 37
06:30 1022 30.18 852 25.16 15.7 60.3 43 3.4 38
06:35 1022 30.18 852 25.16 15.7 60.3 43 3.3 37.9
06:40 1022 30.18 852 25.16 15.8 60.4 43 3.4 38.1
06:45 1022 30.18 852 25.16 15.9 60.6 42 3.2 37.8
06:50 1022 30.18 852 25.16 16.2 61.2 41 3.1 37.7
06:55 1022 30.18 852 25.16 16.5 61.8 41 3.4 38.1
07:00 1022 30.18 852 25.16 17 62.7 42 4 39.2
07:05 1022 30.18 852 25.16 17.7 63.8 41 4.4 40
07:10 1022 30.18 852 25.16 18.2 64.8 41 4.9 40.9
07:15 1022 30.18 852 25.16 18.4 65.1 37 3.6 38.5
07:20 1022 30.18 852 25.16 18.4 65 38 4 39.1
07:25 1022 30.18 852 25.16 18.9 65.9 37 4 39.1
07:30 1023 30.21 852 25.16 19.3 66.8 36 4.2 39.6
07:35 1023 30.21 852 25.16 19.9 67.8 34 3.9 38.9
07:40 1023 30.21 852 25.16 20.4 68.8 33 3.6 38.4
07:45 1023 30.21 852 25.16 20.7 69.3 31 3.3 37.9
07:50 1023 30.21 852 25.16 21.4 70.4 30 3.2 37.7
07:55 1023 30.21 852 25.16 21.8 71.2 28 2.6 36.6
08:00 1023 30.21 852 25.16 22.2 72 28 3.1 37.5
08:05 1023 30.21 852 25.16 22.4 72.3 28 3.4 38.1
08:10 1023 30.21 852 25.16 22.4 72.4 28 3.5 38.2
08:15 1023 30.21 852 25.16 22.8 73.1 28 3.4 38.1
08:20 1023 30.21 852 25.16 22.8 73.1 27 3.1 37.6
08:25 1023 30.21 852 25.16 22.9 73.2 25 2 35.6
08:30 1023 30.21 852 25.16 23.3 73.9 26 2.9 37.2
08:35 1023 30.21 852 25.16 23.1 73.6 26 2.6 36.7
08:40 1023 30.21 852 25.16 22.8 73 25 1.7 35.1
08:45 1023 30.21 852 25.16 23.2 73.7 25 2.3 36.1
08:50 1023 30.21 852 25.16 23.6 74.5 24 2 35.5
08:55 1023 30.21 852 25.16 23.5 74.3 26 3 37.5
09:00 1023 30.21 852 25.16 23.5 74.2 25 2.6 36.7
09:05 1022 30.18 852 25.16 23.5 74.4 25 2.3 36.2
09:10 1022 30.18 852 25.16 24 75.2 24 2.4 36.3
09:15 1022 30.18 852 25.16 24.4 75.9 24 2.5 36.5
09:20 1022 30.18 852 25.16 24.6 76.2 24 2.8 37
09:25 1022 30.18 852 25.16 24.5 76.1 24 2.7 36.8
09:30 1022 30.18 852 25.16 24.8 76.7 24 3.1 37.6
09:35 1022 30.18 852 25.16 24.7 76.5 24 2.8 37
09:40 1022 30.18 851 25.13 25.3 77.6 23 2.9 37.3
09:45 1022 30.18 851 25.13 25.3 77.5 23 2.9 37.3
09:50 1022 30.18 851 25.13 25.2 77.4 24 3.7 38.6
09:55 1022 30.18 851 25.13 25.4 77.8 23 2.9 37.3
10:00 1022 30.18 851 25.13 25.4 77.8 23 3.1 37.5
10:05 1022 30.18 851 25.13 25.4 77.8 23 2.8 37.1
10:10 1022 30.18 851 25.13 26.2 79.2 21 2.2 35.9
10:15 1022 30.18 851 25.13 26.5 79.8 21 2.9 37.3
10:20 1022 30.18 851 25.13 26.6 79.9 21 3.1 37.6
10:25 1022 30.18 851 25.13 26.9 80.4 20 2 35.6
10:30 1022 30.18 851 25.13 26.9 80.3 21 3.2 37.7
10:35 1022 30.18 851 25.13 26.7 80 19 1.6 34.8
10:40 1022 30.18 851 25.13 26.7 80.1 20 2.4 36.4
10:45 1022 30.18 851 25.13 27.3 81.1 21 3.3 37.9
10:50 1022 30.18 851 25.13 26.6 79.8 22 3.3 38
10:55 1022 30.18 851 25.13 26.7 80.1 20 2.5 36.6
11:00 1022 30.18 851 25.13 27.5 81.4 20 2.5 36.6
11:05 1022 30.18 851 25.13 27.9 82.1 20 2.9 37.2
11:10 1022 30.18 851 25.13 27.9 82.2 19 2.7 36.9
11:15 1022 30.18 851 25.13 28.2 82.7 19 2.6 36.6
11:20 1022 30.18 851 25.13 28.7 83.7 18 2.4 36.3
11:25 1022 30.18 851 25.13 28.6 83.4 20 3.4 38.1
11:30 1022 30.18 851 25.13 28.7 83.7 18 2.7 36.9
11:35 1022 30.18 851 25.13 28 82.5 18 2 35.6
11:40 1022 30.18 851 25.13 28.2 82.7 18 2 35.6
11:45 1021 30.15 851 25.13 28.5 83.4 20 3.4 38.1
11:50 1021 30.15 851 25.13 28.4 83.1 19 2.9 37.3
11:55 1021 30.15 850 25.1 28.9 84.1 18 2.9 37.2
12:00 1021 30.15 850 25.1 29.3 84.7 18 2.7 36.9
12:05 1021 30.15 850 25.1 28.9 84 18 2.7 36.8
12:10 1021 30.15 850 25.1 28.9 84 18 2.7 36.9
12:15 1021 30.15 850 25.1 29.6 85.2 17 1.9 35.5
12:20 1021 30.15 850 25.1 29.2 84.5 19 3.4 38.1
12:25 1021 30.15 850 25.1 29.4 84.9 19 3.4 38
12:30 1021 30.15 850 25.1 29.9 85.8 18 3 37.5
12:35 1021 30.15 850 25.1 29.9 85.8 19 3.8 38.9
12:40 1021 30.15 850 25.1 29.7 85.4 17 2.4 36.2
12:45 1021 30.15 850 25.1 30.3 86.5 16 2.2 36
12:50 1021 30.15 850 25.1 30.3 86.6 15 1 33.9
12:55 1021 30.15 850 25.1 29.9 85.8 16 1.3 34.3
13:00 1021 30.15 850 25.1 30.4 86.8 15 1.6 34.9
13:05 1021 30.15 850 25.1 30.2 86.3 15 1.1 34
13:10 1020 30.12 850 25.1 30.6 87 14 0.5 33
13:15 1020 30.12 850 25.1 30.8 87.5 15 1.7 35.1
13:20 1020 30.12 850 25.1 30.9 87.6 14 0.9 33.6
13:25 1020 30.12 850 25.1 31.3 88.3 14 1.2 34.2
13:30 1020 30.12 850 25.1 31.4 88.5 13 0.2 32.4
13:35 1020 30.12 849 25.07 30.7 87.3 14 0.4 32.7
13:40 1020 30.12 849 25.07 30.7 87.2 14 0 32.1
13:45 1020 30.12 849 25.07 31.1 88 13 -0 32
13:50 1020 30.12 849 25.07 31.4 88.5 13 -0.3 31.4
13:55 1020 30.12 849 25.07 31.2 88.2 13 0.4 32.7
14:00 1020 30.12 849 25.07 31.2 88.1 13 -0.6 30.9
14:05 1020 30.12 849 25.07 31.7 89.1 13 -0.2 31.7
14:10 1020 30.12 849 25.07 31 87.9 12 -1.2 29.8
14:15 1020 30.12 849 25.07 30.7 87.3 13 -0.5 31
14:20 1020 30.12 849 25.07 31.1 87.9 13 -0.6 30.9
14:25 1020 30.12 849 25.07 31.2 88.1 13 -0.1 31.7
14:30 1020 30.12 849 25.07 31.1 88 14 0.8 33.4
14:35 1020 30.12 849 25.07 31.9 89.4 14 1.3 34.3
14:40 1020 30.12 849 25.07 31.8 89.2 14 1.1 34
14:45 1020 30.12 849 25.07 31.4 88.5 13 0.1 32.1
14:50 1020 30.12 849 25.07 31.3 88.3 14 0.8 33.5
14:55 1020 30.12 849 25.07 31.2 88.1 13 0.3 32.5
15:00 1020 30.12 849 25.07 31.3 88.3 13 0.3 32.5
15:05 1020 30.12 849 25.07 31 87.9 13 -0 32
15:10 1020 30.12 849 25.07 31.5 88.7 14 0.9 33.6
15:15 1020 30.12 849 25.07 31.4 88.6 13 -0.1 31.7
15:20 1020 30.12 849 25.07 31.7 89.1 13 -0.2 31.6
15:25 1020 30.12 849 25.07 31.8 89.2 13 0.2 32.4
15:30 1020 30.12 849 25.07 31.8 89.2 13 0.8 33.4
15:35 1020 30.12 849 25.07 31.9 89.5 13 1 33.8
15:40 1020 30.12 849 25.07 31.8 89.2 13 0.3 32.5
15:45 1020 30.12 849 25.07 32 89.6 13 0.2 32.3
15:50 1020 30.12 849 25.07 32.2 89.9 13 0.9 33.6
15:55 1020 30.12 849 25.07 31.8 89.2 14 1.4 34.4
16:00 1020 30.12 849 25.07 31.9 89.4 12 -0.7 30.7
16:05 1020 30.12 849 25.07 31.9 89.4 13 -0.1 31.9
16:10 1019 30.09 849 25.07 32 89.7 13 0.2 32.3
16:15 1019 30.09 849 25.07 32 89.7 14 1.3 34.4
16:20 1019 30.09 849 25.07 31.8 89.3 13 0.8 33.4
16:25 1019 30.09 849 25.07 31.7 89.1 13 0.4 32.7
16:30 1019 30.09 849 25.07 32.1 89.7 13 0.4 32.7
16:35 1019 30.09 849 25.07 32 89.7 13 0.3 32.5
16:40 1019 30.09 849 25.07 32.2 89.9 13 0.4 32.8
16:45 1019 30.09 849 25.07 32.1 89.8 13 0.2 32.4
16:50 1019 30.09 849 25.07 31.7 89 13 0.6 33
16:55 1019 30.09 849 25.07 31.3 88.4 13 0.1 32.2
17:00 1019 30.09 849 25.07 31.5 88.8 13 -0.3 31.5
17:05 1019 30.09 849 25.07 31.9 89.5 14 1.7 35
17:10 1019 30.09 849 25.07 32 89.5 12 -0.5 31
17:15 1019 30.09 849 25.07 31.5 88.7 13 -0.1 31.9
17:20 1019 30.09 849 25.07 31.2 88.1 13 0.1 32.1
17:25 1019 30.09 849 25.07 31.4 88.5 13 -0.1 31.8
17:30 1019 30.09 849 25.07 31.4 88.4 13 0.2 32.3
17:35 1019 30.09 848 25.04 31.3 88.3 14 0.5 33
17:40 1019 30.09 848 25.04 31.3 88.4 14 1.1 34
17:45 1019 30.09 848 25.04 31.1 88.1 15 1.4 34.5
17:50 1019 30.09 848 25.04 30.8 87.4 15 1.1 34
17:55 1019 30.09 848 25.04 30.5 86.8 14 0.4 32.7
18:00 1019 30.09 848 25.04 30.2 86.3 17 2.9 37.2
18:05 1019 30.09 848 25.04 30 85.9 15 0.9 33.7
18:10 1019 30.09 849 25.07 29.8 85.6 14 0.2 32.4
18:15 1019 30.09 849 25.07 29.6 85.2 15 0.2 32.4
18:20 1019 30.09 849 25.07 29.4 85 16 1.5 34.6
18:25 1019 30.09 849 25.07 29.2 84.6 17 2 35.6
18:30 1020 30.12 849 25.07 29.1 84.3 16 1.1 34
18:35 1020 30.12 849 25.07 28.8 83.9 19 3 37.5
18:40 1020 30.12 849 25.07 28.6 83.4 17 1.5 34.6
18:45 1020 30.12 849 25.07 28.4 83.1 18 1.8 35.2
18:50 1020 30.12 849 25.07 28.3 83 19 2.9 37.2
18:55 1020 30.12 849 25.07 28.2 82.8 19 2.8 37
19:00 1020 30.12 849 25.07 28.1 82.7 20 3.4 38.2
19:05 1020 30.12 849 25.07 28 82.3 21 4.1 39.4
19:10 1020 30.12 849 25.07 27.7 81.8 24 5.3 41.6
19:15 1020 30.12 849 25.07 27.2 81 25 5.6 42
19:20 1020 30.12 849 25.07 26.9 80.4 24 5 41.1
19:25 1020 30.12 849 25.07 26.8 80.3 25 5.4 41.8
19:30 1020 30.12 849 25.07 26.6 80 26 5.6 42.1
19:35 1020 30.12 850 25.1 26.3 79.3 25 4.7 40.5
19:40 1020 30.12 850 25.1 26.1 78.9 24 4.5 40.1
19:45 1021 30.15 850 25.1 25.9 78.6 25 4.5 40.1
19:50 1021 30.15 850 25.1 25.6 78 25 4.3 39.8
19:55 1021 30.15 850 25.1 25.5 77.8 25 4.3 39.8
20:00 1021 30.15 850 25.1 25.5 77.8 23 3.3 37.9
20:05 1021 30.15 850 25.1 25.4 77.7 23 3.2 37.7
20:10 1021 30.15 850 25.1 25.3 77.5 24 3.2 37.8
20:15 1021 30.15 851 25.13 25.2 77.3 23 2.7 36.8
20:20 1021 30.15 851 25.13 25.1 77.1 22 2.4 36.3
20:25 1022 30.18 851 25.13 25.1 77.1 22 2.3 36.2
20:30 1022 30.18 851 25.13 25.2 77.3 22 2.3 36.2
20:35 1022 30.18 851 25.13 25.2 77.3 21 1.5 34.8
20:40 1022 30.18 851 25.13 25.1 77.1 21 1.2 34.2
20:45 1022 30.18 851 25.13 25 76.9 21 1.6 34.9
20:50 1022 30.18 851 25.13 24.7 76.5 21 1.4 34.5
20:55 1022 30.18 851 25.13 24.7 76.5 21 1.5 34.6
21:00 1022 30.18 851 25.13 24.8 76.6 21 1 33.9
21:05 1022 30.18 851 25.13 24.7 76.5 21 1.3 34.3
21:10 1022 30.18 851 25.13 24.6 76.3 21 0.8 33.5
21:15 1022 30.18 851 25.13 24.6 76.3 21 0.9 33.6
21:20 1022 30.18 851 25.13 24.6 76.3 22 2 35.7
21:25 1022 30.18 851 25.13 24.3 75.8 25 3.1 37.6
21:30 1022 30.18 851 25.13 24 75.2 27 4.1 39.4
21:35 1022 30.18 851 25.13 24 75.1 28 4.5 40.1
21:40 1022 30.18 851 25.13 23.8 74.8 29 4.8 40.6
21:45 1022 30.18 851 25.13 23.5 74.3 30 5.1 41.2
21:50 1022 30.18 851 25.13 23.4 74 30 5.2 41.4
21:55 1022 30.18 851 25.13 23.2 73.7 31 5.2 41.4
22:00 1022 30.18 851 25.13 23.1 73.6 31 5.3 41.6
22:05 1022 30.18 851 25.13 22.9 73.3 32 5.4 41.8
22:10 1022 30.18 851 25.13 22.8 73 32 5.4 41.7
22:15 1022 30.18 851 25.13 22.7 72.9 31 4.8 40.6
22:20 1022 30.18 851 25.13 22.6 72.7 31 4.7 40.4
22:25 1022 30.18 851 25.13 22.4 72.3 30 4.4 39.9
22:30 1022 30.18 851 25.13 22.2 71.9 31 4.2 39.6
22:35 1022 30.18 851 25.13 21.9 71.4 31 4.3 39.8
22:40 1022 30.18 851 25.13 21.7 71 31 4 39.2
22:45 1022 30.18 851 25.13 21.7 71 31 4 39.2
22:50 1022 30.18 851 25.13 21.6 70.9 31 4.1 39.3
22:55 1022 30.18 851 25.13 21.4 70.6 32 4.1 39.4
23:00 1022 30.18 851 25.13 21.4 70.5 32 4.1 39.4
23:05 1022 30.18 851 25.13 21.1 70 33 4.3 39.7
23:10 1022 30.18 851 25.13 20.9 69.7 33 4.2 39.5
23:15 1022 30.18 851 25.13 20.8 69.4 33 4.1 39.4
23:20 1022 30.18 851 25.13 21 69.7 32 4 39.1
23:25 1022 30.18 851 25.13 21 69.8 33 4.2 39.6
23:30 1022 30.18 851 25.13 20.9 69.6 32 3.9 39
23:35 1022 30.18 851 25.13 21 69.8 32 3.9 39
23:40 1022 30.18 851 25.13 21.1 70 32 3.9 39
23:45 1022 30.18 851 25.13 21 69.8 32 3.9 39.1
23:50 1022 30.18 851 25.13 20.8 69.5 33 4.1 39.4
23:55 1022 30.18 851 25.13 20.6 69.1 33 4.2 39.5
24:00 1022 30.18 851 25.13 20.4 68.8 34 4 39.3